createdAt,value
2023-04-28T08:16:23.408Z,20.3555
2023-04-28T08:17:25.156Z,19.5207
2023-04-28T08:18:27.093Z,18.8074
2023-04-28T08:19:29.002Z,18.3590
2023-04-28T08:20:30.947Z,18.5946
2023-04-28T08:21:32.834Z,18.2238
2023-04-28T08:22:34.752Z,17.9344
2023-04-28T08:23:36.697Z,17.8163
2023-04-28T08:24:38.577Z,17.7688
2023-04-28T08:25:40.482Z,17.8555
2023-04-28T08:26:42.398Z,17.8921
2023-04-28T08:27:44.364Z,17.9223
2023-04-28T08:28:46.234Z,17.8705
2023-04-28T08:29:48.187Z,17.9079
2023-04-28T08:30:50.107Z,17.9646
2023-04-28T08:31:52.042Z,18.0443
2023-04-28T08:32:54.022Z,18.1353
2023-04-28T08:33:55.919Z,18.0911
2023-04-28T08:34:57.743Z,17.8951
2023-04-28T08:35:59.711Z,17.8070
2023-04-28T08:37:01.577Z,17.8559
2023-04-28T08:38:03.511Z,17.9350
2023-04-28T08:39:05.414Z,18.0124
2023-04-28T08:40:07.349Z,18.0782
2023-04-28T08:41:09.251Z,17.9861
2023-04-28T08:42:11.208Z,17.8224
2023-04-28T08:43:13.096Z,17.8239
2023-04-28T08:44:15.186Z,17.8849
2023-04-28T08:45:16.936Z,17.9529
2023-04-28T08:46:18.861Z,18.0338
2023-04-28T08:47:20.775Z,18.0268
2023-04-28T08:48:22.738Z,17.8684
2023-04-28T08:49:24.607Z,17.8117
2023-04-28T08:50:26.518Z,17.8841
2023-04-28T08:51:28.445Z,17.9555
2023-04-28T08:52:30.354Z,18.0377
2023-04-28T08:53:32.420Z,18.0872
2023-04-28T08:54:34.399Z,17.9477
2023-04-28T08:55:36.156Z,17.8056
2023-04-28T08:56:38.036Z,17.8046
2023-04-28T08:57:41.217Z,17.8793
2023-04-28T08:58:41.861Z,17.9621
2023-04-28T08:59:43.822Z,18.0379
2023-04-28T09:00:45.719Z,18.0301
2023-04-28T09:01:47.673Z,17.8728
2023-04-28T09:02:49.793Z,17.8306
2023-04-28T09:03:51.610Z,17.8880
2023-04-28T09:04:53.518Z,17.9449
2023-04-28T09:05:55.329Z,18.0206
2023-04-28T09:06:57.243Z,18.0773
2023-04-28T09:07:59.149Z,17.9266
2023-04-28T09:09:01.060Z,17.8196
2023-04-28T09:10:02.987Z,17.8508
2023-04-28T09:11:04.953Z,17.9329
2023-04-28T09:12:06.823Z,18.0085
2023-04-28T09:13:08.742Z,18.0952
2023-04-28T09:14:10.662Z,18.0178
2023-04-28T09:15:12.566Z,17.8479
2023-04-28T09:16:14.511Z,17.8200
2023-04-28T09:17:16.474Z,17.8666
2023-04-28T09:18:18.330Z,17.9336
2023-04-28T09:19:20.229Z,18.0147
2023-04-28T09:20:22.180Z,18.0252
2023-04-28T09:21:24.069Z,17.8875
2023-04-28T09:22:27.010Z,17.8637
2023-04-28T09:23:27.921Z,17.9264
2023-04-28T09:24:29.857Z,17.9997
2023-04-28T09:25:31.769Z,18.0743
2023-04-28T09:26:33.654Z,18.1102
2023-04-28T09:27:35.592Z,17.9582
2023-04-28T09:28:37.494Z,17.8226
2023-04-28T09:29:39.489Z,17.8294
2023-04-28T09:30:41.351Z,17.8914
2023-04-28T09:31:43.266Z,17.9625
2023-04-28T09:32:45.288Z,18.0398
2023-04-28T09:33:47.092Z,17.9888
2023-04-28T09:34:49.028Z,17.8428
2023-04-28T09:35:50.981Z,17.8434
2023-04-28T09:36:52.885Z,17.9066
2023-04-28T09:37:54.769Z,17.9771
2023-04-28T09:38:57.019Z,18.0543
2023-04-28T09:39:58.610Z,18.0550
2023-04-28T09:41:00.622Z,17.8888
2023-04-28T09:42:02.483Z,17.8288
2023-04-28T09:43:15.323Z,17.8584
2023-04-28T09:44:06.280Z,17.9149
2023-04-28T09:45:08.259Z,17.9886
2023-04-28T09:46:10.196Z,18.0418
2023-04-28T09:47:12.043Z,17.9278
2023-04-28T09:48:14.053Z,17.8350
2023-04-28T09:49:15.873Z,17.8908
2023-04-28T09:50:17.930Z,17.9518
2023-04-28T09:51:19.708Z,18.0278
2023-04-28T09:52:21.609Z,18.1001
2023-04-28T09:53:23.545Z,18.0126
2023-04-28T09:54:25.479Z,17.8339
2023-04-28T09:55:27.374Z,17.7926
2023-04-28T09:56:29.279Z,17.8565
2023-04-28T09:57:31.206Z,17.9317
2023-04-28T09:58:33.132Z,18.0022
2023-04-28T09:59:35.045Z,18.0404
2023-04-28T10:00:36.984Z,17.8935
2023-04-28T10:01:38.915Z,17.8370
2023-04-28T10:02:43.359Z,17.8966
2023-04-28T10:03:42.863Z,17.9553
2023-04-28T10:04:44.824Z,18.0299
2023-04-28T10:05:46.696Z,18.0851
2023-04-28T10:06:48.465Z,17.9650
2023-04-28T10:07:50.362Z,17.8395
2023-04-28T10:08:52.327Z,17.8633
2023-04-28T10:09:54.197Z,17.9389
2023-04-28T10:10:56.132Z,18.0036
2023-04-28T10:11:58.038Z,18.0837
2023-04-28T10:13:00.028Z,18.0373
2023-04-28T10:14:01.874Z,17.8779
2023-04-28T10:15:03.781Z,17.8573
2023-04-28T10:16:05.776Z,17.8970
2023-04-28T10:17:07.649Z,17.9637
2023-04-28T10:18:09.569Z,18.0426
2023-04-28T10:19:11.494Z,18.0576
2023-04-28T10:20:13.374Z,17.8945
2023-04-28T10:21:15.306Z,17.8097
2023-04-28T10:22:17.209Z,17.8617
2023-04-28T10:23:19.139Z,17.9512
2023-04-28T10:24:21.061Z,18.0280
2023-04-28T10:25:22.990Z,18.2484
2023-04-28T10:26:24.877Z,18.5481
2023-04-28T10:27:26.813Z,18.7081
2023-04-28T10:28:28.720Z,18.7876
2023-04-28T10:29:30.656Z,18.8805
2023-04-28T10:30:32.599Z,18.9133
2023-04-28T10:31:34.516Z,18.9665
2023-04-28T10:32:36.414Z,18.9949
2023-04-28T10:33:38.305Z,19.0278
2023-04-28T10:34:40.239Z,19.0553
2023-04-28T10:35:42.137Z,19.0890
2023-04-28T10:36:44.110Z,19.1105
2023-04-28T10:37:45.982Z,18.7270
2023-04-28T10:38:47.894Z,18.2271
2023-04-28T10:39:49.841Z,17.9151
2023-04-28T10:40:51.755Z,17.7828
2023-04-28T10:41:53.694Z,17.7649
2023-04-28T10:42:55.570Z,17.8198
2023-04-28T10:43:57.506Z,17.8822
2023-04-28T10:44:59.428Z,17.9142
2023-04-28T10:46:01.529Z,17.9654
2023-04-28T10:47:03.290Z,18.0387
2023-04-28T10:48:05.261Z,18.1215
